Time;durP1;ratioP1;P1;durP2;ratioP2;P2;SDS_P1;SDS_P2;PMS_P1;PMS_P2;Temp;Humidity;BMP_temperature;BMP_pressure;BME280_temperature;BME280_humidity;BME280_pressure;Samples;Min_cycle;Max_cycle;Signal;HPM_P1;HPM_P2
2021/07/28 00:00:09;;;;;;;9.60;6.03;;;16.30;99.90;;;;;;5032775;28;20427;-71
2021/07/28 00:02:35;;;;;;;6.53;5.00;;;16.40;99.90;;;;;;5032545;28;20195;-71
2021/07/28 00:05:00;;;;;;;6.60;4.93;;;16.40;99.90;;;;;;5032856;28;20477;-71
2021/07/28 00:07:26;;;;;;;5.23;4.60;;;16.40;99.90;;;;;;5032256;28;20521;-71
2021/07/28 00:09:51;;;;;;;6.10;5.03;;;16.50;99.90;;;;;;5032114;28;20200;-71
2021/07/28 00:12:17;;;;;;;8.00;5.50;;;16.50;99.90;;;;;;5032234;28;20161;-71
2021/07/28 00:14:43;;;;;;;5.13;3.97;;;16.50;99.90;;;;;;5032252;28;20241;-71
2021/07/28 00:17:11;;;;;;;7.50;4.67;;;16.50;99.90;;;;;;5032587;28;20619;-71
2021/07/28 00:25:22;;;;;;;6.13;5.07;;;16.50;99.90;;;;;;5063133;28;20414;-70
2021/07/28 00:27:49;;;;;;;5.37;4.60;;;16.60;99.90;;;;;;5049660;28;20383;-70
2021/07/28 00:30:16;;;;;;;8.30;5.40;;;16.60;99.90;;;;;;5049689;28;20239;-70
2021/07/28 00:32:41;;;;;;;5.20;4.10;;;16.60;99.90;;;;;;5049658;28;20390;-70
2021/07/28 00:35:07;;;;;;;6.20;3.90;;;16.70;99.90;;;;;;5049613;28;20466;-70
2021/07/28 00:37:33;;;;;;;7.80;3.93;;;16.60;99.90;;;;;;5049389;28;20164;-70
2021/07/28 00:39:59;;;;;;;5.30;4.57;;;16.60;99.90;;;;;;5049573;28;20394;-70
2021/07/28 00:42:24;;;;;;;7.87;5.43;;;16.70;99.90;;;;;;5049389;28;20203;-70
2021/07/28 00:44:50;;;;;;;5.93;4.57;;;16.60;99.90;;;;;;5049415;28;20206;-70
2021/07/28 00:47:15;;;;;;;8.57;4.10;;;16.60;99.90;;;;;;5049404;28;20167;-70
2021/07/28 00:49:41;;;;;;;5.00;4.27;;;16.60;99.90;;;;;;5049603;28;20163;-70
2021/07/28 00:52:07;;;;;;;6.17;4.60;;;16.60;99.90;;;;;;5049110;28;20676;-70
2021/07/28 00:54:33;;;;;;;5.40;4.57;;;16.60;99.90;;;;;;5049289;28;20387;-70
2021/07/28 00:56:59;;;;;;;6.83;5.10;;;16.60;99.90;;;;;;5049293;28;20403;-70
2021/07/28 00:59:25;;;;;;;4.40;3.67;;;16.60;99.90;;;;;;5049082;28;20661;-70
2021/07/28 01:01:52;;;;;;;5.60;4.37;;;16.60;99.90;;;;;;5049112;28;20305;-70
2021/07/28 01:04:18;;;;;;;6.20;5.40;;;16.60;99.90;;;;;;5049143;28;20385;-70
2021/07/28 01:06:44;;;;;;;6.17;4.40;;;16.60;99.90;;;;;;5049093;28;20445;-70
2021/07/28 01:09:09;;;;;;;7.90;4.73;;;16.60;99.90;;;;;;5048964;28;20431;-70
2021/07/28 01:11:36;;;;;;;7.53;5.10;;;16.60;99.90;;;;;;5048795;28;20180;-70
2021/07/28 01:14:03;;;;;;;7.53;4.50;;;16.60;99.90;;;;;;5048938;28;20622;-70
2021/07/28 01:16:30;;;;;;;5.10;4.57;;;16.60;99.90;;;;;;5048835;28;20398;-70
2021/07/28 01:18:55;;;;;;;8.80;4.30;;;16.60;99.90;;;;;;5032587;28;20467;-70
2021/07/28 01:21:21;;;;;;;4.13;3.73;;;16.50;99.90;;;;;;5028585;28;20507;-70
2021/07/28 01:23:50;;;;;;;7.17;5.37;;;16.50;99.90;;;;;;5029101;28;20673;-70
2021/07/28 01:26:16;;;;;;;5.60;4.50;;;16.60;99.90;;;;;;5039339;28;20179;-70
2021/07/28 01:28:41;;;;;;;7.50;4.67;;;16.60;99.90;;;;;;5048414;28;20419;-70
2021/07/28 01:31:10;;;;;;;6.27;5.40;;;16.60;99.90;;;;;;5048694;28;20172;-70
2021/07/28 01:33:39;;;;;;;7.97;4.57;;;16.60;99.90;;;;;;5036733;28;20236;-70
2021/07/28 01:36:06;;;;;;;6.00;5.10;;;16.60;99.90;;;;;;5035217;28;20388;-70
2021/07/28 01:38:32;;;;;;;6.80;5.17;;;16.60;99.90;;;;;;5035209;28;20403;-70
2021/07/28 01:41:00;;;;;;;6.23;4.60;;;16.60;99.90;;;;;;5035052;28;20535;-70
2021/07/28 01:43:27;;;;;;;9.83;5.57;;;16.60;99.90;;;;;;5034984;28;20412;-70
2021/07/28 01:45:53;;;;;;;6.20;4.83;;;16.60;99.90;;;;;;5034845;28;20419;-70
2021/07/28 01:48:18;;;;;;;11.50;6.17;;;16.60;99.90;;;;;;5034975;28;20399;-70
2021/07/28 01:50:45;;;;;;;6.53;5.17;;;16.60;99.90;;;;;;5034887;28;20388;-70
2021/07/28 01:53:12;;;;;;;6.67;5.50;;;16.60;99.90;;;;;;5035056;28;20172;-70
2021/07/28 01:55:38;;;;;;;7.20;5.40;;;16.60;99.90;;;;;;5034864;28;20400;-70
2021/07/28 01:58:04;;;;;;;8.53;5.10;;;16.60;99.90;;;;;;5034754;28;20395;-70
2021/07/28 02:00:29;;;;;;;7.37;5.30;;;16.60;99.90;;;;;;5034521;28;20196;-70
2021/07/28 02:03:02;;;;;;;6.20;5.40;;;16.60;99.90;;;;;;5034613;28;20230;-70
2021/07/28 02:05:29;;;;;;;5.13;4.27;;;16.60;99.90;;;;;;5034675;28;20145;-70
2021/07/28 02:07:54;;;;;;;8.10;4.77;;;16.60;99.90;;;;;;5034787;28;20392;-70
2021/07/28 02:10:20;;;;;;;7.57;5.77;;;16.60;99.90;;;;;;5034948;28;20443;-70
2021/07/28 02:12:45;;;;;;;7.83;5.40;;;16.60;99.90;;;;;;5034538;28;20641;-70
2021/07/28 02:15:11;;;;;;;8.77;5.90;;;16.60;99.90;;;;;;5034477;28;20157;-70
2021/07/28 02:17:36;;;;;;;7.00;5.37;;;16.60;99.90;;;;;;5028925;28;20248;-70
2021/07/28 02:20:02;;;;;;;7.40;5.47;;;16.60;99.90;;;;;;5020980;28;20169;-70
2021/07/28 02:22:28;;;;;;;7.87;5.70;;;16.60;99.90;;;;;;5034618;28;20193;-70
2021/07/28 02:24:53;;;;;;;7.13;4.90;;;16.60;99.90;;;;;;5034307;28;20206;-70
2021/07/28 02:27:19;;;;;;;5.87;5.20;;;16.60;99.90;;;;;;5034488;28;20208;-70
2021/07/28 02:29:44;;;;;;;8.30;5.50;;;16.60;99.90;;;;;;5034698;28;20157;-70
2021/07/28 02:32:10;;;;;;;9.07;6.00;;;16.60;99.90;;;;;;5034214;28;20613;-70
2021/07/28 02:34:35;;;;;;;5.40;4.90;;;16.60;99.90;;;;;;5034039;28;20184;-70
2021/07/28 02:37:01;;;;;;;5.73;5.17;;;16.60;99.90;;;;;;5035816;28;20227;-70
2021/07/28 02:39:26;;;;;;;6.70;5.37;;;16.60;99.90;;;;;;5033987;28;20568;-70
2021/07/28 02:41:52;;;;;;;10.60;5.93;;;16.60;99.90;;;;;;5033938;28;20189;-70
2021/07/28 02:44:18;;;;;;;10.47;5.77;;;16.60;99.90;;;;;;5033050;28;20165;-70
2021/07/28 02:46:43;;;;;;;8.50;5.97;;;16.60;99.90;;;;;;5033949;28;20496;-70
2021/07/28 02:49:09;;;;;;;7.50;6.40;;;16.60;99.90;;;;;;5034339;28;20161;-71
2021/07/28 02:51:35;;;;;;;8.50;6.20;;;16.60;99.90;;;;;;5033686;28;20430;-71
2021/07/28 02:54:00;;;;;;;8.97;6.10;;;16.50;99.90;;;;;;5033673;28;20188;-71
2021/07/28 02:56:26;;;;;;;8.60;6.00;;;16.50;99.90;;;;;;5033798;28;20165;-71
2021/07/28 02:58:51;;;;;;;11.03;6.23;;;16.50;99.90;;;;;;5033546;28;20192;-70
2021/07/28 03:01:17;;;;;;;7.83;5.17;;;16.50;99.90;;;;;;5033551;28;20197;-70
2021/07/28 03:03:42;;;;;;;10.10;7.20;;;16.50;99.90;;;;;;5033493;28;20157;-70
2021/07/28 03:06:08;;;;;;;8.60;6.57;;;16.50;99.90;;;;;;5033734;28;20157;-70
2021/07/28 03:08:33;;;;;;;9.63;6.47;;;16.50;99.90;;;;;;5033284;28;20173;-70
2021/07/28 03:10:59;;;;;;;7.27;5.60;;;16.50;99.90;;;;;;5033312;28;20177;-70
2021/07/28 03:13:25;;;;;;;8.30;5.17;;;16.50;99.90;;;;;;5033263;28;20502;-70
2021/07/28 03:15:51;;;;;;;7.77;5.87;;;16.50;99.90;;;;;;5033320;28;20173;-70
2021/07/28 03:18:17;;;;;;;8.60;6.33;;;16.50;99.90;;;;;;5033136;28;20183;-70
2021/07/28 03:20:43;;;;;;;8.17;6.73;;;16.50;99.90;;;;;;5033162;28;20298;-70
2021/07/28 03:23:09;;;;;;;7.83;7.03;;;16.50;99.90;;;;;;5033315;28;20390;-70
2021/07/28 03:25:35;;;;;;;9.10;6.53;;;16.50;99.90;;;;;;5032995;28;20504;-70
2021/07/28 03:28:00;;;;;;;7.97;6.67;;;16.50;99.90;;;;;;5032993;28;20874;-70
2021/07/28 03:30:26;;;;;;;7.50;6.03;;;16.50;99.90;;;;;;5032937;28;20211;-70
2021/07/28 03:32:51;;;;;;;12.57;6.17;;;16.50;99.90;;;;;;5033004;28;20240;-70
2021/07/28 03:35:17;;;;;;;9.70;6.00;;;16.60;99.90;;;;;;5032995;28;20255;-70
2021/07/28 03:37:42;;;;;;;7.87;6.13;;;16.50;99.90;;;;;;5033043;28;20240;-70
2021/07/28 03:40:09;;;;;;;6.70;5.67;;;16.60;99.90;;;;;;5032701;28;20173;-70
2021/07/28 03:42:34;;;;;;;8.13;6.50;;;16.60;99.90;;;;;;5032583;28;20492;-70
2021/07/28 03:45:00;;;;;;;10.03;6.00;;;16.60;99.90;;;;;;5032724;28;20416;-70
2021/07/28 03:47:27;;;;;;;7.40;5.73;;;16.70;99.90;;;;;;5032988;28;20169;-70
2021/07/28 03:49:53;;;;;;;8.07;6.77;;;16.70;99.90;;;;;;5033012;28;20579;-70
2021/07/28 03:52:19;;;;;;;8.70;6.30;;;16.70;99.90;;;;;;5032711;28;20426;-71
2021/07/28 03:54:44;;;;;;;8.50;6.80;;;16.70;99.90;;;;;;5032673;28;20161;-70
2021/07/28 03:57:11;;;;;;;7.50;5.77;;;16.70;99.90;;;;;;5032750;28;20410;-70
2021/07/28 03:59:37;;;;;;;7.77;5.97;;;16.70;99.90;;;;;;5032401;28;20207;-70
2021/07/28 04:02:03;;;;;;;8.07;6.27;;;16.70;99.90;;;;;;5032404;28;20498;-70
2021/07/28 04:04:29;;;;;;;7.13;5.80;;;16.70;99.90;;;;;;5033187;28;20434;-70
2021/07/28 04:06:54;;;;;;;7.70;6.63;;;16.70;99.90;;;;;;5032613;28;20639;-70
2021/07/28 04:09:20;;;;;;;7.67;5.60;;;16.70;99.90;;;;;;5032784;28;20646;-70
2021/07/28 04:11:45;;;;;;;7.63;6.10;;;16.70;99.90;;;;;;5032574;28;20214;-70
2021/07/28 04:14:11;;;;;;;6.70;5.70;;;16.80;99.90;;;;;;5032478;28;20212;-70
2021/07/28 04:16:36;;;;;;;5.87;4.97;;;16.80;99.90;;;;;;5027105;28;20177;-70
2021/07/28 04:19:02;;;;;;;8.30;5.33;;;16.80;99.90;;;;;;5019879;28;20183;-70
2021/07/28 04:21:27;;;;;;;8.60;6.50;;;16.80;99.90;;;;;;5032306;28;20200;-70
2021/07/28 04:23:53;;;;;;;8.77;6.00;;;16.70;99.90;;;;;;5032396;28;20149;-70
2021/07/28 04:26:19;;;;;;;8.23;5.70;;;16.70;99.90;;;;;;5032450;28;20161;-70
2021/07/28 04:28:44;;;;;;;7.87;5.60;;;16.70;99.90;;;;;;5032333;28;20160;-70
2021/07/28 04:31:10;;;;;;;9.13;6.90;;;16.70;99.90;;;;;;5032387;28;20331;-70
2021/07/28 04:33:35;;;;;;;7.77;6.13;;;16.70;99.90;;;;;;5032882;28;20654;-70
2021/07/28 04:36:01;;;;;;;9.33;6.10;;;16.80;99.90;;;;;;5032214;28;20669;-70
2021/07/28 04:38:26;;;;;;;9.47;5.97;;;16.80;99.90;;;;;;5021039;28;20204;-70
2021/07/28 04:40:52;;;;;;;11.23;6.57;;;16.80;99.90;;;;;;5018853;28;20201;-70
2021/07/28 04:43:18;;;;;;;7.00;5.77;;;16.80;99.90;;;;;;5013074;28;20189;-70
2021/07/28 04:45:43;;;;;;;7.90;6.40;;;16.90;99.90;;;;;;5013004;28;20587;-70
2021/07/28 04:48:09;;;;;;;6.40;5.13;;;16.90;99.90;;;;;;5012998;28;20184;-70
2021/07/28 04:50:35;;;;;;;7.53;5.73;;;17.00;99.90;;;;;;5025571;28;20176;-70
2021/07/28 04:53:01;;;;;;;7.10;5.90;;;17.10;99.90;;;;;;5032240;28;20672;-70
2021/07/28 04:55:26;;;;;;;6.77;5.63;;;17.10;99.90;;;;;;5031521;28;20475;-70
2021/07/28 04:57:52;;;;;;;9.30;5.63;;;17.20;99.90;;;;;;5031548;28;20740;-70
2021/07/28 05:00:18;;;;;;;6.00;4.90;;;17.20;99.90;;;;;;5032118;28;20193;-70
2021/07/28 05:02:43;;;;;;;4.97;4.47;;;17.30;99.90;;;;;;5031049;28;20188;-70
2021/07/28 05:05:09;;;;;;;6.20;5.00;;;17.30;99.90;;;;;;5032145;28;20649;-70
2021/07/28 05:07:35;;;;;;;6.80;5.40;;;17.40;99.90;;;;;;5032959;28;20176;-70
2021/07/28 05:10:00;;;;;;;7.20;5.53;;;17.40;99.90;;;;;;5035516;28;20951;-71
2021/07/28 05:12:26;;;;;;;6.20;5.20;;;17.40;99.90;;;;;;5035731;28;20183;-71
2021/07/28 05:14:52;;;;;;;5.97;5.27;;;17.40;99.90;;;;;;5035832;28;20161;-71
2021/07/28 05:17:20;;;;;;;7.63;5.37;;;17.40;99.90;;;;;;5026456;28;20442;-71
2021/07/28 05:19:45;;;;;;;7.50;5.80;;;17.40;99.90;;;;;;5035129;28;20212;-71
2021/07/28 05:22:11;;;;;;;7.67;5.60;;;17.40;99.90;;;;;;5029341;28;20459;-71
2021/07/28 05:24:36;;;;;;;4.90;4.33;;;17.40;99.90;;;;;;5034655;28;20259;-71
2021/07/28 05:27:02;;;;;;;6.60;5.90;;;17.40;99.90;;;;;;5035362;28;20516;-71
2021/07/28 05:29:28;;;;;;;5.03;4.40;;;17.40;99.90;;;;;;5034767;28;20639;-71
2021/07/28 05:31:53;;;;;;;7.00;5.33;;;17.30;99.90;;;;;;5035342;28;20234;-71
2021/07/28 05:34:19;;;;;;;6.40;5.17;;;17.30;99.90;;;;;;5022397;28;20550;-71
2021/07/28 05:36:44;;;;;;;7.87;5.70;;;17.30;99.90;;;;;;5016364;28;20170;-71
2021/07/28 05:39:10;;;;;;;6.70;5.00;;;17.30;99.90;;;;;;5032352;28;20646;-71
2021/07/28 05:41:35;;;;;;;6.60;5.00;;;17.30;99.90;;;;;;5028771;28;20190;-71
2021/07/28 05:44:07;;;;;;;7.90;5.97;;;17.30;99.90;;;;;;5021152;28;20244;-70
2021/07/28 05:46:34;;;;;;;5.50;4.73;;;17.30;99.90;;;;;;5023051;28;20580;-70
2021/07/28 05:48:59;;;;;;;6.07;4.70;;;17.30;99.90;;;;;;5034284;28;20427;-70
2021/07/28 05:51:25;;;;;;;7.97;6.13;;;17.30;99.90;;;;;;5032120;28;20467;-70
2021/07/28 05:53:50;;;;;;;7.33;6.10;;;17.30;99.90;;;;;;5026332;28;20662;-71
2021/07/28 05:56:16;;;;;;;5.57;4.43;;;17.30;99.90;;;;;;5024200;28;20193;-71
2021/07/28 05:58:41;;;;;;;6.50;5.07;;;17.30;99.90;;;;;;5024538;28;20193;-71
2021/07/28 06:01:07;;;;;;;6.87;5.50;;;17.30;99.90;;;;;;5024001;28;20678;-71
2021/07/28 06:03:32;;;;;;;7.70;5.67;;;17.30;99.90;;;;;;5028910;28;20227;-71
2021/07/28 06:05:59;;;;;;;7.30;5.37;;;17.30;99.90;;;;;;5023018;28;20178;-71
2021/07/28 06:08:25;;;;;;;6.93;5.50;;;17.20;99.90;;;;;;5027308;28;20170;-71
2021/07/28 06:10:50;;;;;;;7.43;5.57;;;17.30;99.90;;;;;;5026914;28;20547;-71
2021/07/28 06:13:16;;;;;;;9.23;6.17;;;17.20;99.90;;;;;;5028153;28;20184;-71
2021/07/28 06:15:41;;;;;;;7.30;5.50;;;17.20;99.90;;;;;;5028053;28;20275;-71
2021/07/28 06:18:07;;;;;;;5.67;4.60;;;17.20;99.90;;;;;;5027088;28;20227;-70
2021/07/28 06:20:33;;;;;;;6.53;5.00;;;17.30;99.90;;;;;;5026693;28;20216;-70
2021/07/28 06:22:58;;;;;;;5.27;4.77;;;17.40;99.90;;;;;;5022853;28;20179;-70
2021/07/28 06:25:24;;;;;;;6.70;5.07;;;17.40;99.90;;;;;;5030586;28;20178;-71
2021/07/28 06:27:49;;;;;;;5.00;4.50;;;17.50;99.90;;;;;;5026280;28;20638;-71
2021/07/28 06:30:16;;;;;;;7.93;4.80;;;17.60;99.90;;;;;;5025030;28;20193;-71
2021/07/28 06:32:42;;;;;;;6.60;4.03;;;17.70;99.90;;;;;;5026026;28;20447;-71
2021/07/28 06:35:08;;;;;;;7.33;4.70;;;17.70;99.90;;;;;;5024282;28;20811;-71
2021/07/28 06:37:33;;;;;;;6.83;5.30;;;17.80;99.90;;;;;;5021131;28;20183;-71
2021/07/28 06:39:59;;;;;;;5.73;4.50;;;17.80;99.90;;;;;;5024824;28;20929;-71
2021/07/28 06:42:24;;;;;;;5.90;4.50;;;17.80;99.90;;;;;;5023271;28;20270;-71
2021/07/28 06:44:50;;;;;;;5.43;4.43;;;17.80;99.90;;;;;;5028818;28;20176;-71
2021/07/28 06:47:15;;;;;;;6.07;4.87;;;17.80;99.90;;;;;;5025905;28;20171;-71
2021/07/28 06:49:44;;;;;;;5.53;4.30;;;17.90;99.90;;;;;;5025848;28;20216;-71
2021/07/28 06:52:09;;;;;;;4.30;3.90;;;17.80;99.90;;;;;;5026955;28;20184;-71
2021/07/28 06:54:35;;;;;;;7.13;5.03;;;17.90;99.90;;;;;;5025736;28;20960;-71
2021/07/28 06:57:00;;;;;;;6.30;4.37;;;17.90;99.90;;;;;;5024058;28;20534;-71
2021/07/28 06:59:26;;;;;;;4.93;4.30;;;17.90;99.90;;;;;;5025624;28;20204;-71
2021/07/28 07:01:52;;;;;;;5.97;4.30;;;17.90;99.90;;;;;;5025744;28;20241;-71
2021/07/28 07:04:17;;;;;;;6.50;4.70;;;18.00;99.90;;;;;;5022425;28;20552;-71
2021/07/28 07:06:43;;;;;;;4.77;3.80;;;18.00;99.90;;;;;;5021279;28;20252;-71
2021/07/28 07:09:08;;;;;;;7.53;4.80;;;18.10;99.90;;;;;;5027041;28;20198;-71
2021/07/28 07:11:34;;;;;;;6.60;5.00;;;18.10;99.90;;;;;;5039101;28;20188;-71
2021/07/28 07:13:59;;;;;;;5.87;5.10;;;18.20;99.90;;;;;;5037357;28;20185;-71
2021/07/28 07:16:25;;;;;;;8.47;3.83;;;18.20;99.90;;;;;;5029507;28;20181;-71
2021/07/28 07:18:50;;;;;;;4.63;4.20;;;18.30;99.90;;;;;;5030970;28;20189;-71
2021/07/28 07:21:16;;;;;;;6.33;4.40;;;18.30;99.90;;;;;;5026454;28;20208;-71
2021/07/28 07:23:41;;;;;;;5.90;4.17;;;18.40;99.90;;;;;;5028107;28;20184;-71
2021/07/28 07:26:07;;;;;;;6.40;4.30;;;18.40;99.90;;;;;;5029290;28;20242;-71
2021/07/28 07:28:34;;;;;;;4.70;3.90;;;18.50;99.90;;;;;;5030363;28;20324;-71
2021/07/28 07:31:00;;;;;;;7.40;4.47;;;18.50;99.90;;;;;;5026904;28;20187;-71
2021/07/28 07:33:42;;;;;;;7.70;5.30;;;18.50;99.90;;;;;;5025423;28;20448;-71
2021/07/28 07:36:10;;;;;;;4.43;3.80;;;18.60;99.90;;;;;;5027228;28;20441;-71
2021/07/28 07:38:37;;;;;;;5.73;4.37;;;18.90;99.90;;;;;;5030685;28;20533;-71
2021/07/28 07:41:03;;;;;;;5.57;4.10;;;19.40;99.90;;;;;;5026945;28;20490;-71
2021/07/28 07:43:29;;;;;;;6.23;4.07;;;19.90;99.90;;;;;;5026266;28;20558;-71
2021/07/28 07:45:55;;;;;;;6.20;4.37;;;20.30;99.90;;;;;;5032405;28;20513;-71
2021/07/28 07:48:23;;;;;;;4.37;3.97;;;20.50;99.90;;;;;;5024222;28;20177;-71
2021/07/28 07:50:48;;;;;;;5.50;4.10;;;20.60;99.90;;;;;;5024856;28;20427;-71
2021/07/28 07:53:14;;;;;;;3.47;3.17;;;20.60;99.90;;;;;;5025574;28;20508;-71
2021/07/28 07:55:40;;;;;;;4.23;3.17;;;21.00;99.90;;;;;;5026071;28;20723;-71
2021/07/28 07:58:05;;;;;;;3.53;3.20;;;21.00;99.90;;;;;;5026838;28;20196;-71
2021/07/28 08:00:31;;;;;;;3.70;3.27;;;21.00;99.90;;;;;;5025171;28;20201;-71
2021/07/28 08:02:56;;;;;;;4.50;3.40;;;20.80;99.90;;;;;;5025509;28;20177;-71
2021/07/28 08:05:22;;;;;;;4.77;3.50;;;20.90;99.90;;;;;;5023640;28;20211;-71
2021/07/28 08:07:47;;;;;;;5.87;3.53;;;20.80;99.90;;;;;;5024452;28;20181;-71
2021/07/28 08:10:14;;;;;;;5.73;3.80;;;20.90;99.90;;;;;;5025387;28;20195;-71
2021/07/28 08:12:39;;;;;;;5.40;3.50;;;21.10;99.90;;;;;;5022316;28;20237;-72
2021/07/28 08:15:05;;;;;;;3.73;3.40;;;21.70;99.90;;;;;;5025028;28;20451;-72
2021/07/28 08:17:31;;;;;;;5.07;3.40;;;22.70;99.90;;;;;;5025659;28;20195;-71
2021/07/28 08:19:57;;;;;;;4.43;3.07;;;23.20;99.90;;;;;;5025533;28;20439;-72
2021/07/28 08:22:23;;;;;;;4.87;2.27;;;23.50;99.90;;;;;;5026235;28;20644;-72
2021/07/28 08:24:49;;;;;;;5.37;3.07;;;23.40;99.90;;;;;;5025751;28;20451;-72
2021/07/28 08:27:17;;;;;;;7.50;3.87;;;23.10;99.90;;;;;;5025609;28;20458;-72
2021/07/28 08:29:42;;;;;;;5.30;4.00;;;22.80;99.90;;;;;;5021862;28;20179;-72
2021/07/28 08:32:08;;;;;;;5.93;4.50;;;22.50;99.90;;;;;;5024100;28;20443;-72
2021/07/28 08:34:33;;;;;;;4.00;3.60;;;22.10;99.90;;;;;;5024541;28;20249;-71
2021/07/28 08:36:59;;;;;;;5.03;3.87;;;21.70;99.90;;;;;;5022389;28;20191;-71
2021/07/28 08:39:25;;;;;;;4.50;3.83;;;21.20;99.90;;;;;;5024047;28;20211;-71
2021/07/28 08:41:52;;;;;;;4.43;3.50;;;20.70;99.90;;;;;;5022011;28;20204;-72
2021/07/28 08:44:19;;;;;;;3.83;3.30;;;20.40;99.90;;;;;;5028887;28;20203;-71
2021/07/28 08:46:45;;;;;;;3.80;3.40;;;20.10;99.90;;;;;;5027383;28;20427;-71
2021/07/28 08:49:12;;;;;;;3.50;3.07;;;19.80;99.90;;;;;;5027423;28;20439;-71
2021/07/28 08:51:42;;;;;;;3.40;2.60;;;19.70;99.90;;;;;;5024733;28;20568;-71
2021/07/28 08:54:07;;;;;;;3.70;2.60;;;19.50;99.90;;;;;;5030341;28;20440;-71
2021/07/28 08:56:39;;;;;;;3.63;2.30;;;19.50;99.90;;;;;;5028783;28;20445;-71
2021/07/28 08:59:05;;;;;;;6.60;3.27;;;19.40;99.90;;;;;;5027163;28;20205;-71
2021/07/28 09:01:31;;;;;;;3.37;2.70;;;19.30;99.90;;;;;;5027675;28;20919;-71
2021/07/28 09:03:56;;;;;;;3.53;2.77;;;19.20;99.90;;;;;;5027591;28;20480;-71
2021/07/28 09:06:30;;;;;;;5.10;2.90;;;19.10;99.90;;;;;;5030161;28;20180;-71
2021/07/28 09:08:58;;;;;;;3.43;2.73;;;19.10;99.90;;;;;;5030345;28;20175;-71
2021/07/28 09:11:24;;;;;;;3.50;3.17;;;19.00;99.90;;;;;;5032211;28;20520;-71
2021/07/28 09:13:54;;;;;;;4.67;3.20;;;19.70;99.90;;;;;;5029117;28;20466;-71
2021/07/28 09:16:20;;;;;;;3.77;2.67;;;21.30;99.90;;;;;;5030075;28;20199;-71
2021/07/28 09:18:50;;;;;;;1.97;1.77;;;23.50;99.90;;;;;;5031193;28;20439;-71
2021/07/28 09:26:52;;;;;;;2.50;2.30;;;25.70;99.90;;;;;;5147860;27;20566;-72
2021/07/28 09:31:56;;;;;;;2.60;2.23;;;29.10;99.90;;;;;;5046380;28;20679;-71
2021/07/28 09:37:03;;;;;;;2.87;2.43;;;29.70;99.90;;;;;;5012653;27;20712;-73
2021/07/28 09:42:10;;;;;;;2.37;2.17;;;29.70;98.70;;;;;;5083788;27;20578;-72
2021/07/28 09:44:37;;;;;;;2.53;2.30;;;29.10;99.70;;;;;;5065021;28;20430;-72
2021/07/28 09:49:43;;;;;;;2.80;2.30;;;29.00;99.90;;;;;;5056416;28;20537;-72
2021/07/28 09:52:18;;;;;;;2.47;2.27;;;28.40;99.50;;;;;;5055921;28;20496;-72
2021/07/28 09:54:44;;;;;;;3.03;2.70;;;28.10;99.90;;;;;;5048638;28;20426;-72
2021/07/28 09:57:13;;;;;;;3.50;2.70;;;27.70;99.90;;;;;;5049709;28;20423;-72
2021/07/28 09:59:42;;;;;;;7.30;4.90;;;27.40;99.90;;;;;;5048291;28;20994;-72
2021/07/28 10:02:08;;;;;;;6.57;4.70;;;27.10;99.90;;;;;;5051016;28;20791;-72
2021/07/28 10:04:34;;;;;;;5.60;3.10;;;26.90;99.90;;;;;;5035981;28;20418;-72
2021/07/28 10:07:01;;;;;;;8.70;4.57;;;26.80;99.90;;;;;;5046657;28;20186;-72
2021/07/28 10:09:34;;;;;;;6.73;4.03;;;26.80;99.90;;;;;;5048455;28;20191;-72
2021/07/28 10:12:01;;;;;;;5.33;4.10;;;26.70;99.90;;;;;;5040061;28;20422;-72
2021/07/28 10:14:27;;;;;;;4.03;3.37;;;26.70;99.90;;;;;;5042227;28;20788;-72
2021/07/28 10:16:53;;;;;;;4.00;3.60;;;26.70;99.90;;;;;;5040243;28;20499;-72
2021/07/28 10:19:19;;;;;;;3.77;2.67;;;26.70;99.90;;;;;;5049384;28;20470;-72
2021/07/28 10:21:46;;;;;;;3.30;2.50;;;26.70;99.90;;;;;;5041555;28;20642;-72
2021/07/28 10:24:12;;;;;;;5.90;3.23;;;26.60;99.90;;;;;;5041267;28;20845;-72
2021/07/28 10:26:41;;;;;;;3.47;3.17;;;26.60;99.90;;;;;;5034639;28;20462;-72
2021/07/28 10:29:09;;;;;;;3.33;3.00;;;26.30;99.90;;;;;;5038770;28;20188;-72
2021/07/28 10:31:53;;;;;;;3.20;2.77;;;25.60;99.90;;;;;;5039379;28;20438;-72
2021/07/28 10:34:23;;;;;;;4.23;3.83;;;25.10;99.90;;;;;;5039902;28;20426;-72
2021/07/28 10:36:49;;;;;;;3.70;3.33;;;24.90;99.90;;;;;;5041178;28;20473;-71
2021/07/28 10:39:36;;;;;;;3.70;2.80;;;24.60;99.90;;;;;;5033750;28;20467;-71
2021/07/28 10:42:04;;;;;;;3.20;2.90;;;24.40;99.90;;;;;;5038234;28;20188;-72
2021/07/28 10:44:30;;;;;;;4.83;3.60;;;24.30;99.90;;;;;;5041124;28;21060;-72
2021/07/28 10:52:37;;;;;;;3.97;3.67;;;24.10;99.90;;;;;;5068642;28;20606;-72
2021/07/28 11:03:18;;;;;;;2.97;2.77;;;23.60;99.90;;;;;;5073976;28;20652;-71
2021/07/28 11:05:49;;;;;;;3.43;2.53;;;23.60;99.90;;;;;;5053215;28;20430;-71
2021/07/28 11:08:20;;;;;;;2.90;2.63;;;23.30;99.90;;;;;;5064074;28;20543;-71
2021/07/28 11:13:24;;;;;;;3.20;2.90;;;23.30;99.90;;;;;;5078740;28;20658;-70
2021/07/28 11:18:32;;;;;;;3.20;2.93;;;23.00;99.90;;;;;;5090649;27;20604;-72
2021/07/28 11:29:07;;;;;;;3.50;2.13;;;23.00;99.90;;;;;;5065526;28;20659;-72
2021/07/28 11:31:35;;;;;;;2.30;2.00;;;23.20;99.90;;;;;;5047455;28;20441;-72
2021/07/28 11:36:46;;;;;;;3.03;2.57;;;23.10;99.90;;;;;;5051837;28;20601;-71
2021/07/28 11:39:15;;;;;;;3.17;2.80;;;23.00;99.90;;;;;;5036524;28;21198;-71
2021/07/28 11:41:41;;;;;;;3.23;2.70;;;23.00;99.90;;;;;;5035237;28;20443;-71
2021/07/28 11:44:07;;;;;;;3.27;3.00;;;23.00;99.90;;;;;;5046014;28;20430;-71
2021/07/28 11:46:35;;;;;;;3.10;2.73;;;23.00;99.90;;;;;;5048817;28;20974;-71
2021/07/28 11:49:05;;;;;;;2.33;2.13;;;23.00;99.90;;;;;;5043681;28;20465;-71
2021/07/28 11:51:35;;;;;;;2.57;2.33;;;22.90;99.90;;;;;;5043801;28;20469;-71
2021/07/28 11:56:50;;;;;;;2.43;2.10;;;22.90;99.90;;;;;;5088397;27;20548;-71
2021/07/28 12:02:00;;;;;;;3.30;2.57;;;22.50;99.90;;;;;;5058758;28;20638;-72
2021/07/28 12:04:28;;;;;;;2.90;2.40;;;22.50;99.90;;;;;;5042684;28;20512;-72
2021/07/28 12:06:54;;;;;;;4.50;2.40;;;22.60;99.90;;;;;;5045066;28;20496;-72
2021/07/28 12:09:22;;;;;;;3.23;2.33;;;22.60;99.90;;;;;;5048564;28;20438;-72
2021/07/28 12:12:06;;;;;;;2.30;2.10;;;22.70;99.90;;;;;;5039640;28;20937;-72
2021/07/28 12:19:54;;;;;;;2.73;2.40;;;22.80;99.90;;;;;;5058380;28;22292;-71
2021/07/28 12:33:22;;;;;;;2.47;2.27;;;22.60;99.90;;;;;;5059639;28;20545;-71
2021/07/28 12:38:29;;;;;;;4.03;2.50;;;22.40;99.90;;;;;;5063511;28;20532;-71
2021/07/28 12:43:37;;;;;;;5.00;1.70;;;22.50;99.90;;;;;;5054539;28;20663;-71
2021/07/28 12:46:05;;;;;;;2.40;2.20;;;22.60;99.90;;;;;;5058479;28;20433;-71
2021/07/28 12:48:33;;;;;;;3.33;2.17;;;22.70;99.90;;;;;;5051155;28;20632;-71
2021/07/28 12:51:01;;;;;;;2.50;1.77;;;22.70;99.90;;;;;;5028619;28;20806;-71
2021/07/28 12:53:28;;;;;;;2.00;1.90;;;22.70;99.90;;;;;;5034545;28;20825;-71
2021/07/28 12:55:55;;;;;;;3.03;2.00;;;22.80;99.90;;;;;;5044810;28;20437;-72
2021/07/28 12:58:21;;;;;;;3.60;1.93;;;22.90;99.90;;;;;;5045795;28;20431;-72
2021/07/28 13:00:47;;;;;;;2.07;1.90;;;22.90;99.90;;;;;;5046698;28;20947;-72
2021/07/28 13:03:16;;;;;;;2.87;1.50;;;22.90;99.90;;;;;;5034619;28;20566;-72
2021/07/28 13:05:43;;;;;;;1.60;1.10;;;22.90;99.90;;;;;;5045464;28;20430;-72
2021/07/28 13:08:10;;;;;;;2.27;1.87;;;23.00;99.90;;;;;;5052410;28;20866;-72
2021/07/28 13:10:37;;;;;;;1.70;1.60;;;23.10;99.90;;;;;;5054078;28;20434;-72
2021/07/28 13:13:03;;;;;;;2.03;1.50;;;23.10;99.90;;;;;;5041316;28;20442;-72
2021/07/28 13:15:29;;;;;;;1.80;1.67;;;23.10;99.90;;;;;;5050420;28;20798;-72
2021/07/28 13:17:55;;;;;;;2.63;1.80;;;23.20;99.90;;;;;;5056074;28;20196;-72
2021/07/28 13:20:21;;;;;;;2.53;1.80;;;23.30;99.90;;;;;;5052137;28;20187;-72
2021/07/28 13:22:48;;;;;;;2.00;1.80;;;23.40;99.90;;;;;;5047129;28;20458;-72
2021/07/28 13:25:14;;;;;;;2.07;1.90;;;23.40;99.90;;;;;;5035839;28;20434;-72
2021/07/28 13:27:40;;;;;;;1.67;1.40;;;23.60;99.90;;;;;;5046753;28;20446;-72
2021/07/28 13:30:07;;;;;;;2.03;1.80;;;23.60;99.90;;;;;;5041818;28;20431;-72
2021/07/28 13:32:33;;;;;;;1.67;1.30;;;23.70;99.90;;;;;;5053760;28;20600;-72
2021/07/28 13:34:59;;;;;;;3.90;2.30;;;23.70;99.90;;;;;;5044041;28;20558;-72
2021/07/28 13:37:25;;;;;;;1.97;1.77;;;23.70;99.90;;;;;;5041114;28;20443;-72
2021/07/28 13:39:50;;;;;;;3.63;2.30;;;23.70;99.90;;;;;;5051771;28;20182;-72
2021/07/28 13:42:16;;;;;;;2.07;1.80;;;23.80;99.90;;;;;;5052334;28;20205;-72
2021/07/28 13:44:42;;;;;;;3.50;2.47;;;23.70;99.90;;;;;;5057352;28;20178;-72
2021/07/28 13:47:08;;;;;;;2.47;1.83;;;23.60;99.90;;;;;;5051008;28;20451;-72
2021/07/28 13:49:34;;;;;;;2.17;1.57;;;23.60;99.20;;;;;;5044243;28;20503;-72
2021/07/28 13:52:02;;;;;;;2.30;1.90;;;23.50;99.90;;;;;;5039533;28;20453;-72
2021/07/28 13:54:27;;;;;;;3.40;2.27;;;23.50;99.90;;;;;;5035071;28;20192;-72
2021/07/28 13:57:15;;;;;;;3.53;1.93;;;23.50;99.80;;;;;;5032419;28;20444;-72
2021/07/28 13:59:42;;;;;;;1.67;1.57;;;23.40;99.60;;;;;;5039596;28;20228;-72